createdAt,value
2017-03-13T00:04:15.681Z,5.72
2017-03-13T00:09:12.675Z,5.72
2017-03-13T00:14:08.973Z,5.76
2017-03-13T00:19:05.679Z,5.75
2017-03-13T00:24:02.113Z,5.71
2017-03-13T00:28:58.961Z,5.79
2017-03-13T00:33:55.714Z,5.89
2017-03-13T00:38:51.969Z,5.75
2017-03-13T00:43:48.525Z,5.72
2017-03-13T00:48:45.047Z,5.68
2017-03-13T00:53:41.469Z,5.66
2017-03-13T00:58:38.114Z,5.69
2017-03-13T01:03:34.958Z,5.71
2017-03-13T01:08:31.558Z,5.71
2017-03-13T01:13:27.926Z,5.66
2017-03-13T01:18:24.401Z,5.66
2017-03-13T01:23:21.819Z,5.66
2017-03-13T01:28:17.959Z,5.59
2017-03-13T01:33:14.078Z,5.51
2017-03-13T01:38:11.117Z,5.38
2017-03-13T01:43:07.619Z,5.29
2017-03-13T01:48:04.281Z,5.25
2017-03-13T01:53:00.721Z,5.20
2017-03-13T01:57:57.180Z,5.10
2017-03-13T02:02:53.899Z,4.97
2017-03-13T02:07:50.541Z,4.94
2017-03-13T02:12:46.822Z,4.96
2017-03-13T02:17:43.353Z,4.94
2017-03-13T02:22:40.015Z,4.67
2017-03-13T02:27:36.240Z,4.55
2017-03-13T02:32:32.639Z,4.45
2017-03-13T02:37:29.120Z,4.49
2017-03-13T02:42:25.292Z,4.56
2017-03-13T02:47:21.737Z,4.32
2017-03-13T02:52:18.013Z,4.40
2017-03-13T02:57:14.747Z,4.52
2017-03-13T03:02:12.280Z,4.41
2017-03-13T03:07:07.995Z,4.48
2017-03-13T03:12:05.625Z,4.38
2017-03-13T03:17:02.422Z,4.30
2017-03-13T03:21:58.880Z,4.30
2017-03-13T03:26:55.217Z,4.17
2017-03-13T03:31:51.361Z,4.16
2017-03-13T03:36:48.219Z,4.23
2017-03-13T03:41:45.321Z,4.14
2017-03-13T03:46:41.801Z,3.99
2017-03-13T03:51:38.227Z,4.05
2017-03-13T03:56:34.528Z,3.78
2017-03-13T04:01:31.913Z,3.81
2017-03-13T04:06:27.931Z,3.81
2017-03-13T04:11:24.594Z,3.73
2017-03-13T04:16:21.527Z,3.68
2017-03-13T04:21:18.308Z,3.51
2017-03-13T04:26:14.646Z,3.47
2017-03-13T04:31:11.024Z,3.50
2017-03-13T04:36:07.474Z,3.70
2017-03-13T04:41:03.724Z,3.68
2017-03-13T04:46:02.026Z,3.62
2017-03-13T04:50:58.397Z,3.48
2017-03-13T04:55:54.865Z,3.44
2017-03-13T05:00:51.130Z,3.37
2017-03-13T05:05:48.504Z,3.66
2017-03-13T05:10:44.731Z,3.56
2017-03-13T05:15:41.678Z,3.50
2017-03-13T05:20:38.160Z,3.48
2017-03-13T05:25:34.299Z,3.32
2017-03-13T05:30:31.599Z,3.14
2017-03-13T05:35:28.172Z,3.10
2017-03-13T05:40:24.824Z,3.10
2017-03-13T05:45:21.430Z,3.18
2017-03-13T05:50:18.286Z,3.40
2017-03-13T05:55:14.842Z,3.41
2017-03-13T06:00:11.611Z,3.47
2017-03-13T06:05:08.143Z,3.37
2017-03-13T06:10:04.274Z,3.40
2017-03-13T06:15:02.045Z,3.37
2017-03-13T06:19:58.211Z,3.28
2017-03-13T06:24:55.526Z,3.59
2017-03-13T06:29:51.826Z,4.10
2017-03-13T06:34:48.800Z,4.32
2017-03-13T06:39:45.413Z,4.42
2017-03-13T06:44:42.180Z,4.44
2017-03-13T06:49:38.833Z,4.48
2017-03-13T06:54:35.385Z,4.55
2017-03-13T06:59:34.345Z,4.55
2017-03-13T07:04:31.140Z,4.66
2017-03-13T07:09:27.725Z,4.75
2017-03-13T07:14:24.982Z,4.99
2017-03-13T07:19:21.647Z,4.97
2017-03-13T07:24:18.372Z,5.17
2017-03-13T07:29:14.642Z,5.65
2017-03-13T07:34:12.466Z,5.66
2017-03-13T07:39:09.032Z,6.12
2017-03-13T07:44:06.575Z,6.70
2017-03-13T07:49:03.127Z,6.54
2017-03-13T07:53:59.933Z,7.15
2017-03-13T07:58:56.525Z,7.54
2017-03-13T08:03:53.785Z,7.95
2017-03-13T08:08:50.570Z,8.20
2017-03-13T08:13:47.106Z,8.12
2017-03-13T08:18:43.431Z,7.85
2017-03-13T08:23:40.908Z,7.85
2017-03-13T08:28:38.167Z,7.82
2017-03-13T08:33:35.864Z,8.15
2017-03-13T08:38:32.285Z,8.19
2017-03-13T08:43:28.435Z,8.48
2017-03-13T08:48:24.727Z,8.27
2017-03-13T08:53:21.548Z,8.30
2017-03-13T08:58:18.166Z,8.31
2017-03-13T09:03:14.627Z,8.58
2017-03-13T09:08:11.503Z,8.55
2017-03-13T09:13:07.968Z,8.58
2017-03-13T09:18:04.566Z,9.80
2017-03-13T09:23:01.656Z,10.76
2017-03-13T09:27:58.773Z,10.19
2017-03-13T09:32:55.266Z,10.42
2017-03-13T09:37:53.151Z,10.51
2017-03-13T09:42:51.161Z,11.35
2017-03-13T09:47:48.696Z,11.40
2017-03-13T09:52:46.396Z,12.58
2017-03-13T09:57:43.986Z,12.42
2017-03-13T10:02:42.067Z,12.21
2017-03-13T10:07:38.180Z,12.29
2017-03-13T10:12:35.875Z,12.85
2017-03-13T10:17:32.819Z,13.01
2017-03-13T10:22:29.473Z,13.12
2017-03-13T10:27:26.672Z,14.05
2017-03-13T10:32:24.255Z,14.47
2017-03-13T10:37:21.299Z,14.35
2017-03-13T10:42:18.035Z,14.32
2017-03-13T10:47:14.146Z,13.96
2017-03-13T10:52:10.571Z,14.40
2017-03-13T10:57:07.269Z,14.82
2017-03-13T11:02:04.310Z,17.19
2017-03-13T11:07:02.534Z,18.80
2017-03-13T11:12:00.927Z,19.81
2017-03-13T11:16:58.916Z,19.14
2017-03-13T11:21:56.384Z,19.40
2017-03-13T11:26:53.678Z,20.80
2017-03-13T11:31:50.648Z,20.29
2017-03-13T11:36:48.063Z,20.24
2017-03-13T11:41:45.361Z,21.02
2017-03-13T11:46:42.401Z,21.77
2017-03-13T11:51:39.530Z,21.95
2017-03-13T11:56:37.154Z,20.84
2017-03-13T12:01:34.272Z,20.75
2017-03-13T12:06:31.018Z,19.66
2017-03-13T12:11:28.603Z,20.07
2017-03-13T12:16:25.794Z,20.11
2017-03-13T12:21:22.773Z,19.86
2017-03-13T12:26:18.819Z,18.89
2017-03-13T12:31:14.864Z,19.49
2017-03-13T12:36:12.879Z,19.36
2017-03-13T12:41:09.301Z,19.62
2017-03-13T12:46:06.077Z,20.28
2017-03-13T12:51:03.042Z,19.09
2017-03-13T12:55:59.114Z,18.03
2017-03-13T13:00:55.108Z,17.94
2017-03-13T13:05:51.438Z,18.00
2017-03-13T13:10:48.096Z,17.79
2017-03-13T13:15:44.337Z,16.51
2017-03-13T13:20:40.437Z,17.63
2017-03-13T13:25:37.805Z,18.84
2017-03-13T13:30:36.392Z,18.98
2017-03-13T13:35:32.929Z,18.15
2017-03-13T13:40:29.407Z,18.41
2017-03-13T13:45:26.767Z,17.72
2017-03-13T13:50:22.483Z,16.35
2017-03-13T13:55:18.522Z,16.58
2017-03-13T14:00:15.227Z,16.54
2017-03-13T14:05:13.376Z,17.24
2017-03-13T14:10:09.705Z,16.64
2017-03-13T14:15:06.181Z,16.31
2017-03-13T14:20:03.366Z,16.32
2017-03-13T14:24:59.876Z,16.16
2017-03-13T14:29:56.587Z,16.04
2017-03-13T14:34:53.873Z,15.92
2017-03-13T14:39:50.244Z,15.90
2017-03-13T14:44:47.734Z,15.92
2017-03-13T14:49:43.761Z,15.58
2017-03-13T14:54:40.468Z,15.76
2017-03-13T14:59:37.339Z,15.67
2017-03-13T15:04:33.756Z,15.68
2017-03-13T15:09:32.769Z,15.37
2017-03-13T15:14:28.097Z,15.28
2017-03-13T15:19:24.753Z,15.10
2017-03-13T15:24:22.135Z,15.03
2017-03-13T15:29:18.396Z,15.02
2017-03-13T15:34:14.583Z,14.97
2017-03-13T15:39:11.521Z,14.85
2017-03-13T15:44:08.217Z,14.84
2017-03-13T15:49:04.477Z,14.63
2017-03-13T15:54:00.755Z,14.53
2017-03-13T15:58:57.695Z,14.18
2017-03-13T16:03:54.515Z,14.00
2017-03-13T16:08:51.755Z,13.93
2017-03-13T16:13:48.094Z,13.71
2017-03-13T16:18:45.060Z,13.79
2017-03-13T16:23:41.509Z,13.70
2017-03-13T16:28:37.963Z,13.65
2017-03-13T16:33:34.296Z,13.54
2017-03-13T16:38:31.003Z,13.47
2017-03-13T16:43:27.821Z,13.49
2017-03-13T16:48:24.449Z,13.33
2017-03-13T16:53:20.798Z,13.27
2017-03-13T16:58:17.893Z,13.08
2017-03-13T17:03:15.660Z,12.83
2017-03-13T17:08:11.849Z,12.55
2017-03-13T17:13:08.367Z,12.31
2017-03-13T17:18:04.561Z,12.12
2017-03-13T17:23:01.437Z,11.99
2017-03-13T17:27:58.259Z,11.83
2017-03-13T17:32:54.689Z,11.66
2017-03-13T17:37:51.044Z,11.50
2017-03-13T17:42:47.341Z,11.44
2017-03-13T17:47:43.550Z,11.33
2017-03-13T17:52:40.060Z,11.19
2017-03-13T17:57:36.640Z,11.14
2017-03-13T18:02:33.205Z,11.05
2017-03-13T18:07:29.583Z,11.07
2017-03-13T18:12:26.304Z,10.97
2017-03-13T18:17:22.770Z,10.92
2017-03-13T18:22:19.380Z,10.82
2017-03-13T18:27:15.773Z,10.84
2017-03-13T18:32:15.088Z,10.87
2017-03-13T18:37:11.124Z,10.94
2017-03-13T18:42:07.320Z,11.17
2017-03-13T18:47:04.385Z,11.23
2017-03-13T18:52:00.901Z,11.19
2017-03-13T18:56:57.192Z,11.00
2017-03-13T19:01:54.209Z,11.02
2017-03-13T19:06:51.033Z,11.04
2017-03-13T19:11:47.553Z,11.14
2017-03-13T19:16:43.965Z,11.05
2017-03-13T19:21:41.031Z,10.99
2017-03-13T19:26:37.227Z,10.93
2017-03-13T19:31:34.523Z,10.93
2017-03-13T19:36:30.744Z,10.78
2017-03-13T19:41:27.267Z,10.56
2017-03-13T19:46:23.280Z,10.40
2017-03-13T19:51:20.437Z,10.30
2017-03-13T19:56:16.930Z,10.04
2017-03-13T20:01:13.306Z,9.83
2017-03-13T20:06:09.684Z,9.76
2017-03-13T20:11:06.031Z,9.72
2017-03-13T20:16:02.478Z,9.51
2017-03-13T20:20:58.910Z,9.55
2017-03-13T20:25:55.515Z,9.50
2017-03-13T20:30:52.053Z,9.44
2017-03-13T20:35:49.110Z,9.34
2017-03-13T20:40:45.356Z,9.19
2017-03-13T20:45:41.512Z,9.03
2017-03-13T20:50:38.314Z,8.94
2017-03-13T20:55:34.596Z,8.89
2017-03-13T21:00:31.466Z,8.74
2017-03-13T21:05:28.501Z,8.76
2017-03-13T21:10:24.998Z,8.66
2017-03-13T21:15:21.442Z,8.71
2017-03-13T21:20:17.588Z,8.60
2017-03-13T21:25:13.843Z,8.46
2017-03-13T21:30:10.356Z,8.49
2017-03-13T21:35:06.916Z,8.52
2017-03-13T21:40:03.490Z,8.41
2017-03-13T21:44:59.817Z,8.31
2017-03-13T21:49:56.273Z,8.26
2017-03-13T21:54:52.576Z,8.27
2017-03-13T21:59:49.121Z,8.30
2017-03-13T22:04:45.343Z,8.26
2017-03-13T22:09:42.011Z,8.10
2017-03-13T22:14:38.449Z,8.16
2017-03-13T22:19:34.984Z,8.08
2017-03-13T22:24:31.191Z,8.15
2017-03-13T22:29:27.561Z,8.15
2017-03-13T22:34:24.950Z,8.03
2017-03-13T22:39:21.229Z,7.97
2017-03-13T22:44:17.720Z,7.85
2017-03-13T22:49:14.140Z,7.82
2017-03-13T22:54:12.019Z,7.79
2017-03-13T22:59:07.868Z,7.76
2017-03-13T23:04:04.187Z,7.75
2017-03-13T23:09:00.623Z,7.66
2017-03-13T23:13:56.820Z,7.57
2017-03-13T23:18:53.470Z,7.51
2017-03-13T23:23:50.582Z,7.36
2017-03-13T23:28:47.141Z,7.38
2017-03-13T23:33:43.463Z,7.39
2017-03-13T23:38:40.103Z,7.29
2017-03-13T23:43:36.864Z,7.20
2017-03-13T23:53:36.192Z,7.15
2017-03-13T23:58:32.774Z,7.07
